sensor_id;sensor_type;location;lat;lon;timestamp;pressure;altitude;pressure_sealevel;temperature;humidity
25869;BME280;13688;53.154;18.136;2023-06-19T00:00:38;100852.21;;;12.92;100.00
25869;BME280;13688;53.154;18.136;2023-06-19T00:06:02;100854.70;;;12.83;100.00
25869;BME280;13688;53.154;18.136;2023-06-19T00:11:24;100852.55;;;12.77;100.00
25869;BME280;13688;53.154;18.136;2023-06-19T00:16:46;100853.33;;;12.68;100.00
25869;BME280;13688;53.154;18.136;2023-06-19T00:22:11;100847.92;;;12.68;100.00
25869;BME280;13688;53.154;18.136;2023-06-19T00:27:33;100845.28;;;12.57;100.00
25869;BME280;13688;53.154;18.136;2023-06-19T00:32:55;100844.80;;;12.52;100.00
25869;BME280;13688;53.154;18.136;2023-06-19T00:38:18;100842.50;;;12.47;100.00
25869;BME280;13688;53.154;18.136;2023-06-19T00:43:41;100846.42;;;12.43;100.00
25869;BME280;13688;53.154;18.136;2023-06-19T00:49:04;100851.13;;;12.30;100.00
25869;BME280;13688;53.154;18.136;2023-06-19T00:54:27;100849.20;;;12.21;100.00
25869;BME280;13688;53.154;18.136;2023-06-19T00:59:52;100839.89;;;12.14;100.00
25869;BME280;13688;53.154;18.136;2023-06-19T01:05:16;100846.53;;;12.10;100.00
25869;BME280;13688;53.154;18.136;2023-06-19T01:10:51;100842.62;;;12.02;100.00
25869;BME280;13688;53.154;18.136;2023-06-19T01:16:16;100836.77;;;11.97;100.00
25869;BME280;13688;53.154;18.136;2023-06-19T01:21:40;100834.43;;;11.93;100.00
25869;BME280;13688;53.154;18.136;2023-06-19T01:27:03;100833.31;;;11.95;100.00
25869;BME280;13688;53.154;18.136;2023-06-19T01:33:08;100832.33;;;11.96;100.00
25869;BME280;13688;53.154;18.136;2023-06-19T01:38:20;100836.53;;;11.89;100.00
25869;BME280;13688;53.154;18.136;2023-06-19T01:43:45;100838.13;;;11.81;100.00
25869;BME280;13688;53.154;18.136;2023-06-19T01:49:10;100840.06;;;11.79;100.00
25869;BME280;13688;53.154;18.136;2023-06-19T01:54:33;100836.27;;;11.70;100.00
25869;BME280;13688;53.154;18.136;2023-06-19T01:59:55;100848.89;;;11.58;100.00
25869;BME280;13688;53.154;18.136;2023-06-19T02:05:21;100850.83;;;11.56;100.00
25869;BME280;13688;53.154;18.136;2023-06-19T02:10:45;100854.63;;;11.54;100.00
25869;BME280;13688;53.154;18.136;2023-06-19T02:16:08;100847.44;;;11.88;100.00
25869;BME280;13688;53.154;18.136;2023-06-19T02:21:31;100843.11;;;11.96;100.00
25869;BME280;13688;53.154;18.136;2023-06-19T02:26:54;100842.16;;;11.97;100.00
25869;BME280;13688;53.154;18.136;2023-06-19T02:32:16;100839.44;;;12.09;100.00
25869;BME280;13688;53.154;18.136;2023-06-19T02:37:39;100841.50;;;12.16;100.00
25869;BME280;13688;53.154;18.136;2023-06-19T02:43:02;100830.91;;;12.36;100.00
25869;BME280;13688;53.154;18.136;2023-06-19T02:48:25;100837.30;;;12.23;100.00
25869;BME280;13688;53.154;18.136;2023-06-19T02:53:48;100848.47;;;12.19;100.00
25869;BME280;13688;53.154;18.136;2023-06-19T02:59:11;100840.98;;;12.22;100.00
25869;BME280;13688;53.154;18.136;2023-06-19T03:04:34;100833.91;;;12.10;100.00
25869;BME280;13688;53.154;18.136;2023-06-19T03:09:59;100842.62;;;12.02;100.00
25869;BME280;13688;53.154;18.136;2023-06-19T03:15:23;100840.67;;;11.93;100.00
25869;BME280;13688;53.154;18.136;2023-06-19T03:20:47;100835.67;;;11.89;100.00
25869;BME280;13688;53.154;18.136;2023-06-19T03:26:12;100839.22;;;11.89;100.00
25869;BME280;13688;53.154;18.136;2023-06-19T03:31:37;100852.55;;;12.02;100.00
25869;BME280;13688;53.154;18.136;2023-06-19T03:37:02;100860.47;;;12.26;100.00
25869;BME280;13688;53.154;18.136;2023-06-19T03:42:26;100861.52;;;12.35;100.00
25869;BME280;13688;53.154;18.136;2023-06-19T03:47:49;100863.85;;;12.39;100.00
25869;BME280;13688;53.154;18.136;2023-06-19T03:53:11;100859.41;;;12.49;100.00
25869;BME280;13688;53.154;18.136;2023-06-19T03:58:34;100853.96;;;12.60;100.00
25869;BME280;13688;53.154;18.136;2023-06-19T04:03:56;100857.32;;;12.74;100.00
25869;BME280;13688;53.154;18.136;2023-06-19T04:09:19;100860.58;;;12.88;100.00
25869;BME280;13688;53.154;18.136;2023-06-19T04:14:42;100863.08;;;13.01;100.00
25869;BME280;13688;53.154;18.136;2023-06-19T04:20:04;100852.68;;;13.17;100.00
25869;BME280;13688;53.154;18.136;2023-06-19T04:25:27;100858.64;;;13.32;100.00
25869;BME280;13688;53.154;18.136;2023-06-19T04:30:49;100857.70;;;13.43;100.00
25869;BME280;13688;53.154;18.136;2023-06-19T04:36:12;100860.21;;;13.65;100.00
25869;BME280;13688;53.154;18.136;2023-06-19T04:41:34;100855.31;;;13.80;100.00
25869;BME280;13688;53.154;18.136;2023-06-19T04:46:59;100855.06;;;13.93;100.00
25869;BME280;13688;53.154;18.136;2023-06-19T04:52:21;100863.37;;;14.11;100.00
25869;BME280;13688;53.154;18.136;2023-06-19T04:57:44;100863.66;;;14.27;100.00
25869;BME280;13688;53.154;18.136;2023-06-19T05:03:06;100870.44;;;14.52;100.00
25869;BME280;13688;53.154;18.136;2023-06-19T05:08:29;100879.42;;;14.62;100.00
25869;BME280;13688;53.154;18.136;2023-06-19T05:13:52;100879.72;;;14.78;100.00
25869;BME280;13688;53.154;18.136;2023-06-19T05:19:14;100894.11;;;14.79;100.00
25869;BME280;13688;53.154;18.136;2023-06-19T05:24:36;100901.93;;;14.92;100.00
25869;BME280;13688;53.154;18.136;2023-06-19T05:29:59;100898.51;;;15.09;100.00
25869;BME280;13688;53.154;18.136;2023-06-19T05:35:22;100900.19;;;15.29;100.00
25869;BME280;13688;53.154;18.136;2023-06-19T05:40:45;100889.86;;;15.52;100.00
25869;BME280;13688;53.154;18.136;2023-06-19T05:46:07;100899.12;;;15.69;100.00
25869;BME280;13688;53.154;18.136;2023-06-19T05:51:30;100913.15;;;15.92;100.00
25869;BME280;13688;53.154;18.136;2023-06-19T05:56:53;100909.49;;;16.11;100.00
25869;BME280;13688;53.154;18.136;2023-06-19T06:02:16;100913.97;;;16.29;100.00
25869;BME280;13688;53.154;18.136;2023-06-19T06:07:39;100913.78;;;16.58;100.00
25869;BME280;13688;53.154;18.136;2023-06-19T06:13:02;100915.09;;;16.82;100.00
25869;BME280;13688;53.154;18.136;2023-06-19T06:18:24;100901.52;;;17.00;100.00
25869;BME280;13688;53.154;18.136;2023-06-19T06:23:47;100906.38;;;17.14;100.00
25869;BME280;13688;53.154;18.136;2023-06-19T06:29:10;100910.23;;;17.55;100.00
25869;BME280;13688;53.154;18.136;2023-06-19T06:34:32;100925.22;;;17.77;100.00
25869;BME280;13688;53.154;18.136;2023-06-19T06:39:55;100928.56;;;17.97;100.00
25869;BME280;13688;53.154;18.136;2023-06-19T06:45:21;100928.34;;;17.90;100.00
25869;BME280;13688;53.154;18.136;2023-06-19T06:50:43;100935.89;;;18.05;100.00
25869;BME280;13688;53.154;18.136;2023-06-19T06:56:07;100938.09;;;18.35;100.00
25869;BME280;13688;53.154;18.136;2023-06-19T07:01:29;100934.72;;;18.49;100.00
25869;BME280;13688;53.154;18.136;2023-06-19T07:06:52;100942.86;;;18.83;100.00
25869;BME280;13688;53.154;18.136;2023-06-19T07:12:16;100949.16;;;19.00;100.00
25869;BME280;13688;53.154;18.136;2023-06-19T07:17:38;100955.84;;;19.22;99.57
25869;BME280;13688;53.154;18.136;2023-06-19T07:23:01;100952.08;;;19.48;96.38
25869;BME280;13688;53.154;18.136;2023-06-19T07:28:25;100944.77;;;19.72;97.65
25869;BME280;13688;53.154;18.136;2023-06-19T07:33:47;100949.84;;;19.92;96.68
25869;BME280;13688;53.154;18.136;2023-06-19T07:39:10;100958.55;;;20.35;90.44
25869;BME280;13688;53.154;18.136;2023-06-19T07:44:32;100957.52;;;20.36;84.55
25869;BME280;13688;53.154;18.136;2023-06-19T07:49:55;100971.30;;;20.58;82.34
25869;BME280;13688;53.154;18.136;2023-06-19T07:55:17;100970.94;;;20.62;74.01
25869;BME280;13688;53.154;18.136;2023-06-19T08:00:40;100966.20;;;20.86;74.07
25869;BME280;13688;53.154;18.136;2023-06-19T08:06:02;100963.23;;;20.96;72.03
25869;BME280;13688;53.154;18.136;2023-06-19T08:11:26;100952.53;;;21.09;71.31
25869;BME280;13688;53.154;18.136;2023-06-19T08:16:49;100956.19;;;21.25;69.34
25869;BME280;13688;53.154;18.136;2023-06-19T08:22:12;100956.03;;;21.26;69.92
25869;BME280;13688;53.154;18.136;2023-06-19T08:27:35;100953.27;;;21.49;69.75
25869;BME280;13688;53.154;18.136;2023-06-19T08:32:57;100952.28;;;21.80;68.92
25869;BME280;13688;53.154;18.136;2023-06-19T08:38:20;100954.58;;;21.91;64.52
25869;BME280;13688;53.154;18.136;2023-06-19T08:43:42;100952.80;;;22.27;65.32
25869;BME280;13688;53.154;18.136;2023-06-19T08:49:05;100956.64;;;22.63;62.82
25869;BME280;13688;53.154;18.136;2023-06-19T08:54:27;100966.20;;;23.03;61.69
25869;BME280;13688;53.154;18.136;2023-06-19T08:59:55;100956.34;;;23.30;57.46
25869;BME280;13688;53.154;18.136;2023-06-19T09:05:24;100953.58;;;23.51;57.12
25869;BME280;13688;53.154;18.136;2023-06-19T09:10:57;100948.83;;;23.60;58.26
25869;BME280;13688;53.154;18.136;2023-06-19T09:16:20;100943.45;;;23.52;54.21
25869;BME280;13688;53.154;18.136;2023-06-19T09:21:44;100944.12;;;22.90;56.59
25869;BME280;13688;53.154;18.136;2023-06-19T09:27:18;100935.98;;;22.81;55.68
25869;BME280;13688;53.154;18.136;2023-06-19T09:32:41;100940.20;;;22.63;55.13
25869;BME280;13688;53.154;18.136;2023-06-19T09:38:06;100935.63;;;23.06;54.80
25869;BME280;13688;53.154;18.136;2023-06-19T09:43:37;100926.72;;;23.68;53.46
25869;BME280;13688;53.154;18.136;2023-06-19T09:49:02;100937.34;;;23.28;50.30
25869;BME280;13688;53.154;18.136;2023-06-19T09:54:28;100925.47;;;24.40;49.08
25869;BME280;13688;53.154;18.136;2023-06-19T09:59:56;100919.59;;;25.24;47.76
25869;BME280;13688;53.154;18.136;2023-06-19T10:05:36;100915.05;;;26.22;44.65
25869;BME280;13688;53.154;18.136;2023-06-19T10:11:01;100912.45;;;26.34;43.44
25869;BME280;13688;53.154;18.136;2023-06-19T10:16:28;100910.08;;;25.59;43.50
25869;BME280;13688;53.154;18.136;2023-06-19T10:21:54;100915.30;;;24.95;44.25
25869;BME280;13688;53.154;18.136;2023-06-19T10:27:20;100911.25;;;24.84;45.77
25869;BME280;13688;53.154;18.136;2023-06-19T10:32:43;100909.87;;;25.41;44.21
25869;BME280;13688;53.154;18.136;2023-06-19T10:38:08;100901.72;;;27.02;40.38
25869;BME280;13688;53.154;18.136;2023-06-19T10:43:33;100896.42;;;27.07;39.08
25869;BME280;13688;53.154;18.136;2023-06-19T10:48:57;100896.55;;;27.69;37.73
25869;BME280;13688;53.154;18.136;2023-06-19T10:54:24;100887.12;;;28.68;36.33
25869;BME280;13688;53.154;18.136;2023-06-19T10:59:50;100888.16;;;28.00;37.16
25869;BME280;13688;53.154;18.136;2023-06-19T11:05:25;100891.13;;;27.05;38.57
25869;BME280;13688;53.154;18.136;2023-06-19T11:10:48;100887.56;;;25.95;39.49
25869;BME280;13688;53.154;18.136;2023-06-19T11:16:11;100891.22;;;25.36;40.34
25869;BME280;13688;53.154;18.136;2023-06-19T11:21:38;100887.42;;;25.31;41.74
25869;BME280;13688;53.154;18.136;2023-06-19T11:27:06;100894.81;;;25.17;41.22
25869;BME280;13688;53.154;18.136;2023-06-19T11:32:41;100890.17;;;25.51;42.43
25869;BME280;13688;53.154;18.136;2023-06-19T11:38:05;100894.11;;;24.89;40.89
25869;BME280;13688;53.154;18.136;2023-06-19T11:43:36;100893.55;;;25.46;39.85
25869;BME280;13688;53.154;18.136;2023-06-19T11:49:17;100888.67;;;25.81;40.05
25869;BME280;13688;53.154;18.136;2023-06-19T11:54:43;100876.37;;;27.18;35.71
25869;BME280;13688;53.154;18.136;2023-06-19T12:00:14;100877.56;;;26.97;35.86
25869;BME280;13688;53.154;18.136;2023-06-19T12:05:37;100874.28;;;27.38;37.33
25869;BME280;13688;53.154;18.136;2023-06-19T12:11:00;100856.39;;;29.53;32.28
25869;BME280;13688;53.154;18.136;2023-06-19T12:16:23;100861.02;;;28.75;32.00
25869;BME280;13688;53.154;18.136;2023-06-19T12:21:46;100863.14;;;28.62;32.33
25869;BME280;13688;53.154;18.136;2023-06-19T12:27:11;100860.23;;;27.65;34.55
25869;BME280;13688;53.154;18.136;2023-06-19T12:32:35;100857.47;;;26.52;36.93
25869;BME280;13688;53.154;18.136;2023-06-19T12:38:00;100854.25;;;26.10;38.29
25869;BME280;13688;53.154;18.136;2023-06-19T12:43:24;100855.03;;;27.00;36.29
25869;BME280;13688;53.154;18.136;2023-06-19T12:48:50;100838.88;;;28.75;33.76
25869;BME280;13688;53.154;18.136;2023-06-19T12:54:14;100831.55;;;29.81;32.29
25869;BME280;13688;53.154;18.136;2023-06-19T12:59:37;100842.22;;;28.66;32.95
25869;BME280;13688;53.154;18.136;2023-06-19T13:05:01;100830.73;;;29.34;31.57
25869;BME280;13688;53.154;18.136;2023-06-19T13:10:25;100843.54;;;28.63;32.33
25869;BME280;13688;53.154;18.136;2023-06-19T13:15:51;100832.48;;;27.78;33.76
25869;BME280;13688;53.154;18.136;2023-06-19T13:21:15;100830.72;;;27.65;35.57
25869;BME280;13688;53.154;18.136;2023-06-19T13:26:39;100825.97;;;27.73;34.66
25869;BME280;13688;53.154;18.136;2023-06-19T13:32:03;100829.11;;;26.76;35.31
25869;BME280;13688;53.154;18.136;2023-06-19T13:37:28;100832.36;;;26.67;36.67
25869;BME280;13688;53.154;18.136;2023-06-19T13:42:52;100832.80;;;26.95;35.45
25869;BME280;13688;53.154;18.136;2023-06-19T13:48:16;100822.78;;;26.38;35.89
25869;BME280;13688;53.154;18.136;2023-06-19T13:53:40;100822.80;;;26.24;36.47
25869;BME280;13688;53.154;18.136;2023-06-19T13:59:05;100821.95;;;26.24;36.84
25869;BME280;13688;53.154;18.136;2023-06-19T14:04:29;100822.48;;;26.84;36.60
25869;BME280;13688;53.154;18.136;2023-06-19T14:09:54;100809.58;;;27.53;35.06
25869;BME280;13688;53.154;18.136;2023-06-19T14:15:18;100806.34;;;27.56;35.00
25869;BME280;13688;53.154;18.136;2023-06-19T14:20:41;100796.19;;;28.83;32.33
25869;BME280;13688;53.154;18.136;2023-06-19T14:26:03;100795.12;;;30.87;29.31
25869;BME280;13688;53.154;18.136;2023-06-19T14:31:31;100781.52;;;31.96;27.21
25869;BME280;13688;53.154;18.136;2023-06-19T14:36:52;100786.30;;;32.01;26.36
25869;BME280;13688;53.154;18.136;2023-06-19T14:42:14;100789.46;;;32.09;26.54
25869;BME280;13688;53.154;18.136;2023-06-19T14:47:36;100791.78;;;32.17;26.44
25869;BME280;13688;53.154;18.136;2023-06-19T14:53:00;100786.15;;;32.12;27.60
25869;BME280;13688;53.154;18.136;2023-06-19T14:58:23;100788.75;;;31.37;27.21
25869;BME280;13688;53.154;18.136;2023-06-19T15:03:47;100781.98;;;31.49;27.30
25869;BME280;13688;53.154;18.136;2023-06-19T15:09:10;100777.80;;;31.69;26.33
25869;BME280;13688;53.154;18.136;2023-06-19T15:14:32;100781.98;;;30.65;28.54
25869;BME280;13688;53.154;18.136;2023-06-19T15:19:55;100775.92;;;31.36;28.35
25869;BME280;13688;53.154;18.136;2023-06-19T15:25:18;100770.25;;;32.57;27.08
25869;BME280;13688;53.154;18.136;2023-06-19T15:30:41;100778.17;;;30.26;27.63
25869;BME280;13688;53.154;18.136;2023-06-19T15:36:03;100770.04;;;30.08;26.96
25869;BME280;13688;53.154;18.136;2023-06-19T15:41:27;100764.09;;;30.90;26.48
25869;BME280;13688;53.154;18.136;2023-06-19T15:46:49;100769.31;;;30.58;26.85
25869;BME280;13688;53.154;18.136;2023-06-19T15:52:12;100769.78;;;30.66;26.35
25869;BME280;13688;53.154;18.136;2023-06-19T15:57:34;100764.55;;;28.79;29.08
25869;BME280;13688;53.154;18.136;2023-06-19T16:02:57;100765.03;;;28.16;30.78
25869;BME280;13688;53.154;18.136;2023-06-19T16:08:21;100756.24;;;27.89;31.77
25869;BME280;13688;53.154;18.136;2023-06-19T16:13:44;100765.56;;;28.55;35.94
25869;BME280;13688;53.154;18.136;2023-06-19T16:19:07;100762.78;;;29.67;28.34
25869;BME280;13688;53.154;18.136;2023-06-19T16:24:30;100767.29;;;30.98;27.35
25869;BME280;13688;53.154;18.136;2023-06-19T16:29:53;100767.95;;;30.72;26.00
25869;BME280;13688;53.154;18.136;2023-06-19T16:35:16;100761.97;;;29.54;27.71
25869;BME280;13688;53.154;18.136;2023-06-19T16:40:38;100766.48;;;29.84;30.94
25869;BME280;13688;53.154;18.136;2023-06-19T16:46:01;100764.37;;;29.27;31.72
25869;BME280;13688;53.154;18.136;2023-06-19T16:51:23;100767.23;;;29.68;30.98
25869;BME280;13688;53.154;18.136;2023-06-19T16:56:46;100763.27;;;30.15;29.61
25869;BME280;13688;53.154;18.136;2023-06-19T17:02:10;100762.98;;;30.74;31.14
25869;BME280;13688;53.154;18.136;2023-06-19T17:07:33;100759.41;;;28.94;34.56
25869;BME280;13688;53.154;18.136;2023-06-19T17:12:56;100763.27;;;27.73;34.97
25869;BME280;13688;53.154;18.136;2023-06-19T17:18:18;100769.41;;;27.14;42.30
25869;BME280;13688;53.154;18.136;2023-06-19T17:23:41;100764.12;;;26.56;39.57
25869;BME280;13688;53.154;18.136;2023-06-19T17:29:05;100771.80;;;26.09;41.40
25869;BME280;13688;53.154;18.136;2023-06-19T17:34:28;100778.27;;;25.83;54.51
25869;BME280;13688;53.154;18.136;2023-06-19T17:39:51;100772.89;;;25.30;52.83
25869;BME280;13688;53.154;18.136;2023-06-19T17:45:14;100769.70;;;25.33;54.56
25869;BME280;13688;53.154;18.136;2023-06-19T17:50:37;100770.77;;;25.19;53.40
25869;BME280;13688;53.154;18.136;2023-06-19T17:56:00;100764.00;;;24.95;55.10
25869;BME280;13688;53.154;18.136;2023-06-19T18:01:23;100764.17;;;24.47;56.85
25869;BME280;13688;53.154;18.136;2023-06-19T18:06:47;100762.51;;;23.91;59.94
25869;BME280;13688;53.154;18.136;2023-06-19T18:12:11;100771.25;;;23.60;64.25
25869;BME280;13688;53.154;18.136;2023-06-19T18:17:35;100767.74;;;23.10;62.36
25869;BME280;13688;53.154;18.136;2023-06-19T18:22:59;100768.48;;;22.76;61.65
25869;BME280;13688;53.154;18.136;2023-06-19T18:28:24;100765.23;;;22.45;61.14
25869;BME280;13688;53.154;18.136;2023-06-19T18:33:47;100769.03;;;22.44;64.48
25869;BME280;13688;53.154;18.136;2023-06-19T18:39:11;100775.55;;;22.43;64.09
25869;BME280;13688;53.154;18.136;2023-06-19T18:44:35;100779.37;;;22.27;66.05
25869;BME280;13688;53.154;18.136;2023-06-19T18:49:59;100778.02;;;22.02;65.94
25869;BME280;13688;53.154;18.136;2023-06-19T18:55:24;100778.47;;;22.05;66.53
25869;BME280;13688;53.154;18.136;2023-06-19T19:00:51;100775.89;;;21.82;70.56
25869;BME280;13688;53.154;18.136;2023-06-19T19:06:15;100768.42;;;21.91;67.23
25869;BME280;13688;53.154;18.136;2023-06-19T19:11:40;100769.63;;;21.88;67.32
25869;BME280;13688;53.154;18.136;2023-06-19T19:17:05;100778.58;;;21.97;68.05
25869;BME280;13688;53.154;18.136;2023-06-19T19:22:29;100784.27;;;21.81;71.81
25869;BME280;13688;53.154;18.136;2023-06-19T19:27:55;100786.84;;;21.67;73.87
25869;BME280;13688;53.154;18.136;2023-06-19T19:33:19;100791.58;;;21.44;77.34
25869;BME280;13688;53.154;18.136;2023-06-19T19:38:43;100793.16;;;21.38;78.08
25869;BME280;13688;53.154;18.136;2023-06-19T19:44:08;100795.90;;;21.38;79.56
25869;BME280;13688;53.154;18.136;2023-06-19T19:49:32;100807.23;;;21.12;80.31
25869;BME280;13688;53.154;18.136;2023-06-19T19:54:57;100807.16;;;21.06;79.50
25869;BME280;13688;53.154;18.136;2023-06-19T20:00:23;100813.47;;;21.06;82.50
25869;BME280;13688;53.154;18.136;2023-06-19T20:05:49;100820.95;;;20.90;79.75
25869;BME280;13688;53.154;18.136;2023-06-19T20:11:13;100827.39;;;20.74;81.86
25869;BME280;13688;53.154;18.136;2023-06-19T20:16:38;100824.54;;;20.90;79.44
25869;BME280;13688;53.154;18.136;2023-06-19T20:22:00;100829.28;;;20.96;79.84
25869;BME280;13688;53.154;18.136;2023-06-19T20:27:26;100835.66;;;20.89;78.41
25869;BME280;13688;53.154;18.136;2023-06-19T20:32:48;100838.33;;;20.97;79.37
25869;BME280;13688;53.154;18.136;2023-06-19T20:38:11;100830.86;;;20.91;81.23
25869;BME280;13688;53.154;18.136;2023-06-19T20:43:34;100840.30;;;21.03;82.00
25869;BME280;13688;53.154;18.136;2023-06-19T20:48:58;100840.20;;;20.73;83.37
25869;BME280;13688;53.154;18.136;2023-06-19T20:54:21;100846.71;;;20.72;81.15
25869;BME280;13688;53.154;18.136;2023-06-19T20:59:43;100843.20;;;20.86;79.75
25869;BME280;13688;53.154;18.136;2023-06-19T21:05:06;100844.39;;;20.84;80.48
25869;BME280;13688;53.154;18.136;2023-06-19T21:10:29;100836.92;;;20.55;80.83
25869;BME280;13688;53.154;18.136;2023-06-19T21:15:52;100846.53;;;20.51;78.10
25869;BME280;13688;53.154;18.136;2023-06-19T21:21:15;100836.87;;;20.32;79.92
25869;BME280;13688;53.154;18.136;2023-06-19T21:26:37;100855.34;;;20.61;79.10
25869;BME280;13688;53.154;18.136;2023-06-19T21:31:59;100848.73;;;20.78;80.41
25869;BME280;13688;53.154;18.136;2023-06-19T21:37:22;100849.92;;;20.53;81.70
25869;BME280;13688;53.154;18.136;2023-06-19T21:42:45;100843.42;;;20.54;80.02
25869;BME280;13688;53.154;18.136;2023-06-19T21:48:07;100849.87;;;20.30;80.12
25869;BME280;13688;53.154;18.136;2023-06-19T21:53:30;100853.86;;;20.19;79.61
25869;BME280;13688;53.154;18.136;2023-06-19T21:58:53;100870.51;;;19.93;82.95
25869;BME280;13688;53.154;18.136;2023-06-19T22:04:16;100866.78;;;19.86;86.61
25869;BME280;13688;53.154;18.136;2023-06-19T22:09:38;100859.29;;;19.88;86.61
25869;BME280;13688;53.154;18.136;2023-06-19T22:15:02;100873.64;;;19.74;90.19
25869;BME280;13688;53.154;18.136;2023-06-19T22:20:25;100878.28;;;19.57;93.07
25869;BME280;13688;53.154;18.136;2023-06-19T22:25:47;100865.16;;;19.44;91.56
25869;BME280;13688;53.154;18.136;2023-06-19T22:31:10;100854.75;;;19.64;91.42
25869;BME280;13688;53.154;18.136;2023-06-19T22:36:33;100854.60;;;19.50;92.56
25869;BME280;13688;53.154;18.136;2023-06-19T22:41:55;100849.45;;;19.55;93.75
25869;BME280;13688;53.154;18.136;2023-06-19T22:47:18;100851.53;;;19.44;90.90
25869;BME280;13688;53.154;18.136;2023-06-19T22:52:41;100858.02;;;19.43;90.63
25869;BME280;13688;53.154;18.136;2023-06-19T22:58:05;100848.45;;;19.39;87.64
25869;BME280;13688;53.154;18.136;2023-06-19T23:03:27;100854.92;;;19.47;89.37
25869;BME280;13688;53.154;18.136;2023-06-19T23:08:53;100857.17;;;19.35;89.63
25869;BME280;13688;53.154;18.136;2023-06-19T23:14:15;100848.64;;;19.30;92.22
25869;BME280;13688;53.154;18.136;2023-06-19T23:19:41;100856.16;;;19.20;89.76
25869;BME280;13688;53.154;18.136;2023-06-19T23:25:05;100859.58;;;19.22;89.50
25869;BME280;13688;53.154;18.136;2023-06-19T23:30:27;100870.48;;;19.13;92.62
25869;BME280;13688;53.154;18.136;2023-06-19T23:35:49;100872.86;;;19.00;90.65
25869;BME280;13688;53.154;18.136;2023-06-19T23:41:13;100872.36;;;19.05;89.58
25869;BME280;13688;53.154;18.136;2023-06-19T23:46:36;100880.69;;;19.28;88.64
25869;BME280;13688;53.154;18.136;2023-06-19T23:51:59;100884.80;;;19.24;89.59
25869;BME280;13688;53.154;18.136;2023-06-19T23:57:22;100878.14;;;19.26;90.88
